createdAt,value
2023-08-02T00:02:25.019Z,21.64
2023-08-02T00:04:52.912Z,21.65
2023-08-02T00:07:19.282Z,21.61
2023-08-02T00:09:45.620Z,21.60
2023-08-02T00:12:11.999Z,21.55
2023-08-02T00:14:38.354Z,21.58
2023-08-02T00:17:04.686Z,21.55
2023-08-02T00:19:31.011Z,21.54
2023-08-02T00:21:57.335Z,21.54
2023-08-02T00:24:23.674Z,21.55
2023-08-02T00:26:50.052Z,21.54
2023-08-02T00:29:16.451Z,21.49
2023-08-02T00:31:42.790Z,21.49
2023-08-02T00:34:09.139Z,21.50
2023-08-02T00:36:35.542Z,21.46
2023-08-02T00:39:01.928Z,21.46
2023-08-02T00:41:28.255Z,21.52
2023-08-02T00:43:54.576Z,21.52
2023-08-02T00:46:21.083Z,21.48
2023-08-02T00:48:47.613Z,21.54
2023-08-02T00:51:13.994Z,21.55
2023-08-02T00:53:40.384Z,21.53
2023-08-02T00:56:06.717Z,21.52
2023-08-02T00:58:33.145Z,21.48
2023-08-02T01:00:59.556Z,21.48
2023-08-02T01:03:25.944Z,21.45
2023-08-02T01:05:52.324Z,21.46
2023-08-02T01:08:18.715Z,21.51
2023-08-02T01:10:45.058Z,21.55
2023-08-02T01:13:11.389Z,21.56
2023-08-02T01:15:37.730Z,21.56
2023-08-02T01:18:04.147Z,21.55
2023-08-02T01:20:30.552Z,21.54
2023-08-02T01:22:56.944Z,21.53
2023-08-02T01:25:23.340Z,21.51
2023-08-02T01:27:49.688Z,21.48
2023-08-02T01:30:16.098Z,21.49
2023-08-02T01:32:42.477Z,21.52
2023-08-02T01:35:08.886Z,21.52
2023-08-02T01:37:35.244Z,21.53
2023-08-02T01:40:01.634Z,21.55
2023-08-02T01:42:28.050Z,21.54
2023-08-02T01:44:54.438Z,21.52
2023-08-02T01:47:20.862Z,21.54
2023-08-02T01:49:47.258Z,21.57
2023-08-02T01:52:13.609Z,21.61
2023-08-02T01:54:39.986Z,21.51
2023-08-02T01:57:06.398Z,21.51
2023-08-02T01:59:32.740Z,21.48
2023-08-02T02:01:59.124Z,21.47
2023-08-02T02:04:25.455Z,21.42
2023-08-02T02:06:51.873Z,21.37
2023-08-02T02:09:18.229Z,21.36
2023-08-02T02:11:44.617Z,21.36
2023-08-02T02:14:10.995Z,21.39
2023-08-02T02:16:37.339Z,21.36
2023-08-02T02:19:03.670Z,21.36
2023-08-02T02:21:30.019Z,21.31
2023-08-02T02:23:56.388Z,21.31
2023-08-02T02:26:22.761Z,21.30
2023-08-02T02:28:49.089Z,21.25
2023-08-02T02:31:15.434Z,21.25
2023-08-02T02:33:41.800Z,21.24
2023-08-02T02:36:08.137Z,21.24
2023-08-02T02:38:34.481Z,21.23
2023-08-02T02:41:00.808Z,21.28
2023-08-02T02:43:27.154Z,21.26
2023-08-02T02:45:55.207Z,21.14
2023-08-02T02:48:23.404Z,21.09
2023-08-02T02:50:49.811Z,21.06
2023-08-02T02:53:16.154Z,21.13
2023-08-02T02:55:42.481Z,21.13
2023-08-02T02:58:08.797Z,21.17
2023-08-02T03:00:35.161Z,21.23
2023-08-02T03:03:01.579Z,21.20
2023-08-02T03:05:28.019Z,21.20
2023-08-02T03:07:54.441Z,21.17
2023-08-02T03:10:20.789Z,21.15
2023-08-02T03:12:47.122Z,21.09
2023-08-02T03:15:13.454Z,21.14
2023-08-02T03:17:39.860Z,21.15
2023-08-02T03:20:06.244Z,21.20
2023-08-02T03:22:32.620Z,21.23
2023-08-02T03:24:59.010Z,21.22
2023-08-02T03:27:25.392Z,21.20
2023-08-02T03:29:51.781Z,21.22
2023-08-02T03:32:18.139Z,21.18
2023-08-02T03:34:44.469Z,21.18
2023-08-02T03:37:10.850Z,21.15
2023-08-02T03:39:37.172Z,21.16
2023-08-02T03:42:03.545Z,21.18
2023-08-02T03:44:29.879Z,21.25
2023-08-02T03:46:56.198Z,21.22
2023-08-02T03:49:22.569Z,21.23
2023-08-02T03:51:48.963Z,21.22
2023-08-02T03:54:15.378Z,21.23
2023-08-02T03:56:41.987Z,21.23
2023-08-02T03:59:08.583Z,21.24
2023-08-02T04:01:34.950Z,21.21
2023-08-02T04:04:01.351Z,21.29
2023-08-02T04:06:27.835Z,21.28
2023-08-02T04:08:54.198Z,21.30
2023-08-02T04:11:20.604Z,21.27
2023-08-02T04:13:46.992Z,21.30
2023-08-02T04:16:13.427Z,21.33
2023-08-02T04:18:39.778Z,21.32
2023-08-02T04:21:06.138Z,21.39
2023-08-02T04:23:32.530Z,21.44
2023-08-02T04:26:00.110Z,21.42
2023-08-02T04:28:26.682Z,21.42
2023-08-02T04:30:53.052Z,21.42
2023-08-02T04:33:19.428Z,21.47
2023-08-02T04:35:45.808Z,21.49
2023-08-02T04:38:12.159Z,21.54
2023-08-02T04:40:38.551Z,21.57
2023-08-02T04:43:04.908Z,21.56
2023-08-02T04:45:31.262Z,21.52
2023-08-02T04:47:57.627Z,21.54
2023-08-02T04:50:24.030Z,21.59
2023-08-02T04:52:50.438Z,21.59
2023-08-02T04:55:16.806Z,21.63
2023-08-02T04:57:43.222Z,21.63
2023-08-02T05:00:09.625Z,21.63
2023-08-02T05:02:36.021Z,21.65
2023-08-02T05:05:02.413Z,21.62
2023-08-02T05:07:28.733Z,21.61
2023-08-02T05:09:55.041Z,21.68
2023-08-02T05:12:21.354Z,21.68
2023-08-02T05:14:47.728Z,21.71
2023-08-02T05:17:14.119Z,21.74
2023-08-02T05:19:40.447Z,21.75
2023-08-02T05:22:06.855Z,21.78
2023-08-02T05:24:33.192Z,21.75
2023-08-02T05:26:59.567Z,21.82
2023-08-02T05:29:25.963Z,21.86
2023-08-02T05:31:52.377Z,21.85
2023-08-02T05:34:18.844Z,21.89
2023-08-02T05:36:45.196Z,21.89
2023-08-02T05:39:11.576Z,21.95
2023-08-02T05:41:37.993Z,21.98
2023-08-02T05:44:06.305Z,21.97
2023-08-02T05:46:32.952Z,21.99
2023-08-02T05:48:59.346Z,22.06
2023-08-02T05:51:25.737Z,22.03
2023-08-02T05:53:52.079Z,22.09
2023-08-02T05:56:18.451Z,22.13
2023-08-02T05:58:44.851Z,22.14
2023-08-02T06:01:11.281Z,22.14
2023-08-02T06:03:37.717Z,22.16
2023-08-02T06:06:04.181Z,22.20
2023-08-02T06:08:30.525Z,22.21
2023-08-02T06:10:56.843Z,22.22
2023-08-02T06:13:23.216Z,22.20
2023-08-02T06:15:49.569Z,22.26
2023-08-02T06:18:15.990Z,22.26
2023-08-02T06:20:42.336Z,22.30
2023-08-02T06:23:08.714Z,22.35
2023-08-02T06:25:35.075Z,22.35
2023-08-02T06:28:01.433Z,22.27
2023-08-02T06:30:27.797Z,22.29
2023-08-02T06:32:54.197Z,22.32
2023-08-02T06:35:20.572Z,22.35
2023-08-02T06:37:46.898Z,22.48
2023-08-02T06:40:13.218Z,22.53
2023-08-02T06:42:39.626Z,22.52
2023-08-02T06:45:05.957Z,22.58
2023-08-02T06:47:32.358Z,22.58
2023-08-02T06:49:58.792Z,22.54
2023-08-02T06:52:25.138Z,22.59
2023-08-02T06:54:51.501Z,22.64
2023-08-02T06:57:17.836Z,22.61
2023-08-02T06:59:44.212Z,22.74
2023-08-02T07:02:10.549Z,22.76
2023-08-02T07:04:36.945Z,22.83
2023-08-02T07:07:03.301Z,22.84
2023-08-02T07:09:29.708Z,22.86
2023-08-02T07:11:56.097Z,23.03
2023-08-02T07:14:22.441Z,23.07
2023-08-02T07:16:48.780Z,23.12
2023-08-02T07:19:15.181Z,23.20
2023-08-02T07:21:42.167Z,23.21
2023-08-02T07:24:08.761Z,23.13
2023-08-02T07:26:35.135Z,23.18
2023-08-02T07:29:01.521Z,23.15
2023-08-02T07:31:27.831Z,23.17
2023-08-02T07:33:54.171Z,23.18
2023-08-02T07:36:20.683Z,23.20
2023-08-02T07:38:47.107Z,23.28
2023-08-02T07:41:13.429Z,23.28
2023-08-02T07:43:39.814Z,23.31
2023-08-02T07:46:06.174Z,23.35
2023-08-02T07:48:32.521Z,23.43
2023-08-02T07:50:58.858Z,23.50
2023-08-02T07:53:25.185Z,23.55
2023-08-02T07:55:51.561Z,23.63
2023-08-02T07:58:17.885Z,23.58
2023-08-02T08:00:44.261Z,23.54
2023-08-02T08:03:10.661Z,23.50
2023-08-02T08:05:37.084Z,23.55
2023-08-02T08:08:03.424Z,23.62
2023-08-02T08:10:29.751Z,23.66
2023-08-02T08:12:56.078Z,23.83
2023-08-02T08:15:22.465Z,23.92
2023-08-02T08:17:48.881Z,24.07
2023-08-02T08:20:15.233Z,24.11
2023-08-02T08:22:41.613Z,24.08
2023-08-02T08:25:07.968Z,24.19
2023-08-02T08:27:34.345Z,24.11
2023-08-02T08:30:00.738Z,24.11
2023-08-02T08:32:27.264Z,24.05
2023-08-02T08:34:53.659Z,23.88
2023-08-02T08:37:20.081Z,23.99
2023-08-02T08:39:49.384Z,23.90
2023-08-02T08:42:17.863Z,23.95
2023-08-02T08:44:44.229Z,24.00
2023-08-02T08:47:10.561Z,24.11
2023-08-02T08:49:36.946Z,24.15
2023-08-02T08:52:03.342Z,24.20
2023-08-02T08:54:29.761Z,24.28
2023-08-02T08:56:56.098Z,24.20
2023-08-02T08:59:22.428Z,24.23
2023-08-02T09:01:48.866Z,24.33
2023-08-02T09:04:15.256Z,24.38
2023-08-02T09:06:41.650Z,24.34
2023-08-02T09:09:08.046Z,24.22
2023-08-02T09:11:34.415Z,24.23
2023-08-02T09:14:00.807Z,24.14
2023-08-02T09:16:27.159Z,24.08
2023-08-02T09:18:54.038Z,24.08
2023-08-02T09:21:20.358Z,24.09
2023-08-02T09:23:46.680Z,24.09
2023-08-02T09:26:13.198Z,24.11
2023-08-02T09:28:39.538Z,24.18
2023-08-02T09:31:05.912Z,24.24
2023-08-02T09:33:32.429Z,24.26
2023-08-02T09:35:58.856Z,24.27
2023-08-02T09:38:25.183Z,24.30
2023-08-02T09:41:32.483Z,24.37
2023-08-02T09:43:37.849Z,24.45
2023-08-02T09:46:04.221Z,24.60
2023-08-02T09:48:30.572Z,24.66
2023-08-02T09:50:57.247Z,24.65
2023-08-02T09:53:23.812Z,24.73
2023-08-02T09:55:50.177Z,24.82
2023-08-02T09:58:16.577Z,24.84
2023-08-02T10:00:42.960Z,24.83
2023-08-02T10:03:23.675Z,24.85
2023-08-02T10:05:52.159Z,24.91
2023-08-02T10:08:18.556Z,24.95
2023-08-02T10:10:44.893Z,24.98
2023-08-02T10:13:11.261Z,25.07
2023-08-02T10:15:37.597Z,25.13
2023-08-02T10:18:04.033Z,25.23
2023-08-02T10:20:30.504Z,25.21
2023-08-02T10:22:56.889Z,25.23
2023-08-02T10:25:23.212Z,25.22
2023-08-02T10:27:49.599Z,25.32
2023-08-02T10:30:15.941Z,25.28
2023-08-02T10:32:42.391Z,25.34
2023-08-02T10:35:08.809Z,25.31
2023-08-02T10:37:35.173Z,25.56
2023-08-02T10:40:01.555Z,25.59
2023-08-02T10:42:27.906Z,25.60
2023-08-02T10:44:54.301Z,25.64
2023-08-02T10:47:20.640Z,25.60
2023-08-02T10:49:47.031Z,25.79
2023-08-02T10:52:13.420Z,25.77
2023-08-02T10:54:39.763Z,25.84
2023-08-02T10:57:06.162Z,25.88
2023-08-02T10:59:32.494Z,25.91
2023-08-02T11:01:58.991Z,25.88
2023-08-02T11:04:25.427Z,25.94
2023-08-02T11:06:51.803Z,26.00
2023-08-02T11:09:18.201Z,26.06
2023-08-02T11:11:45.833Z,26.05
2023-08-02T11:14:13.009Z,26.13
2023-08-02T11:16:39.337Z,26.25
2023-08-02T11:19:05.781Z,26.33
2023-08-02T11:21:32.256Z,26.48
2023-08-02T11:24:01.767Z,26.56
2023-08-02T11:26:55.609Z,26.48
2023-08-02T11:29:14.797Z,26.56
2023-08-02T11:31:47.046Z,26.51
2023-08-02T11:34:14.629Z,26.53
2023-08-02T11:36:41.246Z,26.50
2023-08-02T11:39:07.841Z,26.61
2023-08-02T11:41:34.167Z,26.68
2023-08-02T11:44:00.547Z,26.78
2023-08-02T11:46:28.209Z,26.74
2023-08-02T11:48:54.693Z,26.81
2023-08-02T11:51:21.082Z,26.80
2023-08-02T11:53:47.426Z,26.84
2023-08-02T11:56:13.828Z,26.91
2023-08-02T11:58:40.219Z,27.00
2023-08-02T12:01:06.542Z,26.97
2023-08-02T12:03:32.934Z,27.09
2023-08-02T12:05:59.272Z,27.04
2023-08-02T12:08:25.648Z,27.09
2023-08-02T12:10:52.049Z,27.11
2023-08-02T12:13:18.417Z,27.16
2023-08-02T12:15:44.788Z,27.19
2023-08-02T12:18:11.122Z,27.22
2023-08-02T12:20:37.498Z,27.24
2023-08-02T12:23:03.847Z,27.22
2023-08-02T12:25:30.190Z,27.27
2023-08-02T12:27:56.554Z,27.33
2023-08-02T12:30:23.021Z,27.40
2023-08-02T12:32:49.445Z,27.56
2023-08-02T12:35:15.836Z,27.59
2023-08-02T12:37:42.167Z,27.57
2023-08-02T12:40:08.548Z,27.54
2023-08-02T12:42:40.025Z,27.73
2023-08-02T12:45:18.022Z,27.69
2023-08-02T12:47:44.913Z,27.88
2023-08-02T12:50:11.362Z,28.00
2023-08-02T12:52:37.768Z,28.12
2023-08-02T12:55:04.096Z,28.23
2023-08-02T12:57:30.473Z,28.21
2023-08-02T12:59:56.827Z,28.32
2023-08-02T13:02:23.214Z,28.31
2023-08-02T13:04:49.538Z,28.41
2023-08-02T13:07:17.209Z,28.37
2023-08-02T13:09:45.165Z,28.43
2023-08-02T13:12:13.886Z,28.56
2023-08-02T13:14:40.524Z,28.66
2023-08-02T13:17:06.874Z,28.71
2023-08-02T13:19:33.267Z,28.72
2023-08-02T13:21:59.661Z,28.87
2023-08-02T13:24:25.981Z,28.90
2023-08-02T13:26:52.347Z,28.98
2023-08-02T13:29:20.187Z,28.73
2023-08-02T13:31:47.768Z,28.69
2023-08-02T13:34:14.199Z,28.80
2023-08-02T13:36:40.920Z,28.97
2023-08-02T13:39:07.435Z,29.19
2023-08-02T13:41:33.855Z,29.39
2023-08-02T13:44:00.269Z,29.60
2023-08-02T13:46:26.775Z,29.72
2023-08-02T13:48:53.179Z,29.90
2023-08-02T13:51:19.555Z,30.14
2023-08-02T13:53:45.901Z,30.05
2023-08-02T13:56:12.281Z,29.89
2023-08-02T13:58:38.600Z,29.69
2023-08-02T14:01:05.045Z,30.01
2023-08-02T14:03:31.430Z,30.12
2023-08-02T14:05:57.854Z,30.34
2023-08-02T14:08:24.266Z,30.65
2023-08-02T14:10:50.653Z,30.80
2023-08-02T14:13:16.986Z,30.79
2023-08-02T14:15:43.446Z,30.53
2023-08-02T14:18:09.846Z,30.51
2023-08-02T14:20:36.197Z,30.76
2023-08-02T14:23:02.577Z,30.62
2023-08-02T14:25:28.916Z,30.50
2023-08-02T14:27:55.302Z,30.47
2023-08-02T14:30:21.695Z,30.64
2023-08-02T14:32:48.098Z,30.67
2023-08-02T14:35:14.442Z,30.78
2023-08-02T14:37:40.771Z,30.84
2023-08-02T14:40:07.095Z,31.23
2023-08-02T14:42:33.466Z,31.38
2023-08-02T14:44:59.834Z,31.59
2023-08-02T14:47:26.296Z,31.17
2023-08-02T14:49:52.692Z,31.00
2023-08-02T14:52:19.025Z,30.76
2023-08-02T14:54:45.392Z,31.14
2023-08-02T14:57:11.756Z,31.40
2023-08-02T14:59:38.074Z,31.29
2023-08-02T15:02:04.454Z,30.85
2023-08-02T15:04:30.846Z,30.65
2023-08-02T15:06:57.245Z,30.50
2023-08-02T15:09:23.686Z,30.40
2023-08-02T15:11:50.109Z,30.24
2023-08-02T15:14:16.436Z,30.11
2023-08-02T15:16:42.975Z,30.06
2023-08-02T15:19:09.544Z,30.08
2023-08-02T15:21:35.917Z,29.97
2023-08-02T15:24:02.262Z,30.00
2023-08-02T15:26:28.672Z,29.93
2023-08-02T15:28:55.041Z,29.87
2023-08-02T15:31:21.467Z,30.02
2023-08-02T15:33:47.898Z,29.99
2023-08-02T15:36:14.225Z,29.92
2023-08-02T15:38:40.571Z,29.84
2023-08-02T15:41:06.888Z,29.73
2023-08-02T15:43:33.276Z,29.64
2023-08-02T15:45:59.636Z,29.50
2023-08-02T15:48:26.027Z,29.41
2023-08-02T15:50:52.417Z,29.46
2023-08-02T15:53:18.791Z,29.40
2023-08-02T15:55:45.134Z,29.22
2023-08-02T15:58:11.512Z,29.26
2023-08-02T16:00:38.820Z,29.67
2023-08-02T16:03:05.456Z,30.00
2023-08-02T16:05:31.912Z,30.15
2023-08-02T16:07:58.247Z,29.99
2023-08-02T16:10:24.581Z,29.99
2023-08-02T16:12:50.962Z,29.99
2023-08-02T16:15:17.301Z,30.06
2023-08-02T16:17:43.724Z,29.92
2023-08-02T16:20:10.128Z,29.73
2023-08-02T16:22:36.638Z,29.33
2023-08-02T16:25:03.005Z,29.07
2023-08-02T16:27:29.542Z,29.03
2023-08-02T16:29:55.970Z,28.95
2023-08-02T16:32:22.493Z,28.61
2023-08-02T16:34:48.919Z,28.51
2023-08-02T16:37:15.272Z,28.53
2023-08-02T16:39:41.583Z,28.56
2023-08-02T16:42:07.987Z,29.91
2023-08-02T16:44:34.373Z,29.46
2023-08-02T16:47:00.739Z,29.44
2023-08-02T16:49:27.125Z,28.98
2023-08-02T16:51:53.518Z,28.86
2023-08-02T16:54:19.844Z,28.83
2023-08-02T16:56:46.169Z,28.72
2023-08-02T16:59:12.491Z,28.80
2023-08-02T17:01:38.947Z,28.60
2023-08-02T17:04:05.463Z,28.45
2023-08-02T17:06:31.859Z,28.34
2023-08-02T17:08:58.194Z,28.38
2023-08-02T17:11:24.523Z,28.30
2023-08-02T17:13:50.849Z,28.28
2023-08-02T17:16:17.228Z,28.35
2023-08-02T17:18:43.637Z,28.33
2023-08-02T17:21:09.959Z,28.25
2023-08-02T17:23:36.332Z,28.41
2023-08-02T17:26:02.704Z,28.49
2023-08-02T17:28:29.074Z,28.54
2023-08-02T17:30:55.432Z,28.59
2023-08-02T17:33:21.774Z,28.59
2023-08-02T17:35:48.149Z,28.54
2023-08-02T17:38:14.518Z,28.40
2023-08-02T17:40:40.854Z,28.30
2023-08-02T17:43:07.227Z,28.28
2023-08-02T17:45:33.581Z,28.11
2023-08-02T17:47:59.996Z,27.94
2023-08-02T17:50:26.358Z,27.87
2023-08-02T17:52:52.734Z,27.83
2023-08-02T17:55:19.117Z,27.89
2023-08-02T17:57:45.533Z,27.83
2023-08-02T18:00:11.931Z,27.77
2023-08-02T18:02:38.302Z,27.75
2023-08-02T18:05:04.827Z,27.73
2023-08-02T18:07:31.257Z,27.67
2023-08-02T18:09:57.597Z,27.66
2023-08-02T18:12:23.932Z,27.58
2023-08-02T18:14:50.302Z,27.46
2023-08-02T18:17:16.758Z,27.35
2023-08-02T18:19:44.577Z,27.35
2023-08-02T18:22:10.924Z,27.27
2023-08-02T18:24:39.378Z,27.16
2023-08-02T18:27:08.308Z,27.04
2023-08-02T18:29:34.651Z,26.94
2023-08-02T18:32:01.001Z,26.84
2023-08-02T18:34:27.324Z,26.75
2023-08-02T18:36:53.843Z,26.71
2023-08-02T18:39:20.171Z,26.73
2023-08-02T18:41:46.493Z,26.66
2023-08-02T18:44:12.831Z,26.46
2023-08-02T18:46:39.216Z,26.31
2023-08-02T18:49:05.590Z,26.02
2023-08-02T18:51:31.955Z,25.81
2023-08-02T18:53:58.345Z,25.55
2023-08-02T18:56:24.739Z,25.33
2023-08-02T18:58:51.088Z,25.07
2023-08-02T19:01:17.511Z,24.78
2023-08-02T19:03:43.969Z,24.68
2023-08-02T19:06:10.413Z,24.52
2023-08-02T19:08:36.862Z,24.48
2023-08-02T19:11:03.281Z,24.52
2023-08-02T19:13:29.667Z,24.51
2023-08-02T19:15:56.101Z,24.49
2023-08-02T19:18:22.505Z,24.48
2023-08-02T19:20:48.899Z,24.46
2023-08-02T19:23:15.317Z,24.48
2023-08-02T19:25:41.676Z,24.52
2023-08-02T19:28:08.099Z,24.56
2023-08-02T19:30:34.439Z,24.52
2023-08-02T19:33:00.927Z,24.55
2023-08-02T19:35:27.345Z,24.56
2023-08-02T19:37:53.691Z,24.47
2023-08-02T19:40:20.028Z,24.36
2023-08-02T19:42:46.409Z,24.24
2023-08-02T19:45:12.789Z,24.25
2023-08-02T19:47:39.174Z,24.13
2023-08-02T19:50:05.585Z,24.10
2023-08-02T19:52:31.913Z,24.01
2023-08-02T19:54:58.303Z,23.92
2023-08-02T19:57:24.702Z,23.94
2023-08-02T19:59:51.029Z,23.84
2023-08-02T20:02:17.358Z,23.76
2023-08-02T20:04:43.686Z,23.63
2023-08-02T20:07:10.002Z,23.61
2023-08-02T20:09:36.341Z,23.53
2023-08-02T20:12:02.732Z,23.56
2023-08-02T20:14:29.128Z,23.55
2023-08-02T20:16:55.620Z,23.50
2023-08-02T20:19:22.139Z,23.50
2023-08-02T20:21:48.507Z,23.49
2023-08-02T20:24:14.886Z,23.54
2023-08-02T20:26:41.220Z,23.48
2023-08-02T20:29:07.578Z,23.43
2023-08-02T20:31:33.962Z,23.39
2023-08-02T20:34:00.366Z,23.38
2023-08-02T20:36:26.788Z,23.32
2023-08-02T20:38:53.216Z,23.36
2023-08-02T20:41:19.647Z,23.36
2023-08-02T20:43:46.021Z,23.39
2023-08-02T20:46:12.450Z,23.37
2023-08-02T20:48:38.940Z,23.37
2023-08-02T20:51:05.431Z,23.39
2023-08-02T20:53:31.834Z,23.35
2023-08-02T20:55:58.252Z,23.32
2023-08-02T20:58:24.590Z,23.33
2023-08-02T21:00:51.768Z,23.31
2023-08-02T21:03:18.332Z,23.27
2023-08-02T21:05:44.728Z,23.25
2023-08-02T21:08:11.089Z,23.23
2023-08-02T21:10:37.499Z,23.17
2023-08-02T21:13:03.909Z,23.19
2023-08-02T21:15:30.254Z,23.23
2023-08-02T21:17:56.654Z,23.22
2023-08-02T21:20:23.003Z,23.21
2023-08-02T21:22:49.477Z,23.19
2023-08-02T21:25:15.830Z,23.17
2023-08-02T21:27:42.247Z,23.16
2023-08-02T21:30:08.730Z,23.14
2023-08-02T21:32:41.639Z,23.16
2023-08-02T21:35:08.539Z,23.15
2023-08-02T21:37:34.934Z,23.12
2023-08-02T21:40:01.306Z,23.01
2023-08-02T21:42:27.632Z,23.05
2023-08-02T21:44:54.033Z,23.04
2023-08-02T21:47:20.369Z,22.98
2023-08-02T21:49:46.678Z,22.93
2023-08-02T21:52:13.053Z,22.94
2023-08-02T21:54:39.471Z,22.94
2023-08-02T21:57:05.810Z,22.92
2023-08-02T21:59:32.193Z,22.89
2023-08-02T22:01:58.558Z,22.92
2023-08-02T22:04:24.907Z,22.85
2023-08-02T22:06:51.275Z,22.87
2023-08-02T22:09:17.648Z,22.85
2023-08-02T22:11:47.032Z,22.90
2023-08-02T22:14:13.356Z,22.85
2023-08-02T22:16:39.757Z,22.82
2023-08-02T22:19:06.189Z,22.84
2023-08-02T22:21:32.540Z,22.85
2023-08-02T22:23:58.854Z,22.86
2023-08-02T22:26:25.248Z,22.88
2023-08-02T22:28:51.585Z,22.79
2023-08-02T22:31:18.080Z,22.81
2023-08-02T22:33:44.493Z,22.79
2023-08-02T22:36:10.802Z,22.85
2023-08-02T22:38:48.225Z,22.83
2023-08-02T22:41:15.690Z,22.80
2023-08-02T22:43:42.080Z,22.85
2023-08-02T22:46:08.453Z,22.84
2023-08-02T22:51:04.064Z,22.75
2023-08-02T22:53:30.398Z,22.85
2023-08-02T22:55:56.702Z,22.76
2023-08-02T22:58:23.018Z,22.75
2023-08-02T23:00:49.357Z,22.69
2023-08-02T23:03:15.780Z,22.67
2023-08-02T23:05:42.189Z,22.65
2023-08-02T23:08:08.552Z,22.65
2023-08-02T23:10:35.099Z,22.65
2023-08-02T23:13:01.601Z,22.60
2023-08-02T23:15:28.000Z,22.62
2023-08-02T23:17:54.343Z,22.57
2023-08-02T23:20:20.698Z,22.59
2023-08-02T23:22:47.068Z,22.55
2023-08-02T23:25:13.400Z,22.55
2023-08-02T23:27:39.767Z,22.52
2023-08-02T23:30:06.152Z,22.47
2023-08-02T23:32:32.564Z,22.42
2023-08-02T23:34:58.947Z,22.30
2023-08-02T23:37:25.266Z,22.24
2023-08-02T23:39:51.820Z,22.21
2023-08-02T23:42:18.263Z,22.17
2023-08-02T23:44:44.855Z,22.12
2023-08-02T23:47:11.248Z,22.09
2023-08-02T23:49:37.670Z,22.10
2023-08-02T23:52:03.986Z,22.13
2023-08-02T23:54:30.345Z,22.12
2023-08-02T23:56:56.664Z,22.11
2023-08-02T23:59:23.043Z,22.02
